Tuesday, October 17, 2017, 2:54 PM EDT
Back to Local

KLNS, Lancaster Airport

Location: Lititz, PA, United States Lat: 40.117
Local Time: 2:54 PM EDT (18:54 GMT) Lon: -76.3
Time Zone: US/Eastern Elev: 403 ft

Show me the last for .
Show Coded

Time T Td Feel RH Dir Speed Gust Alt SLP Vis Weather Sky Remarks
2017-10-17 13:53 57 36 - 45 Variable 6 - 30.31 30.31 10 CLR 6-hr Min Temp (2pm): 37.9°F
6-hr Max Temp (2pm): 57.0°F
2017-10-17 12:53 56 36 - 46 Variable 3 - 30.34 30.34 10 CLR None
2017-10-17 11:53 53 36 - 52 - Calm - 30.36 30.36 10 CLR None
2017-10-17 10:53 51 35 - 54 330° 3 - 30.37 30.37 10 CLR None
2017-10-17 09:53 48 36 45 62 Variable 6 - 30.38 30.38 10 CLR None
2017-10-17 08:53 44 38 43 78 290° 3 - 30.38 30.38 10 CLR None
2017-10-17 07:53 38 35 34 89 290° 5 - 30.35 30.36 10 CLR 6-hr Min Temp (8am): 36.0°F
6-hr Max Temp (8am): 44.1°F
2017-10-17 06:53 38 35 36 89 250° 3 - 30.34 30.34 10 CLR None
2017-10-17 05:53 37 35 - 92 - Calm - 30.33 30.33 10 CLR None
2017-10-17 04:53 39 35 36 85 290° 5 - 30.31 30.31 10 CLR None
2017-10-17 03:53 42 34 38 72 350° 6 - 30.28 30.29 10 CLR None
2017-10-17 02:53 43 34 40 70 10° 5 - 30.28 30.28 10 CLR None
2017-10-17 01:53 44 35 42 70 360° 5 - 30.27 30.27 10 CLR 6-hr Min Temp (2am): 44.1°F
6-hr Max Temp (2am): 52.0°F
2017-10-17 00:53 46 35 42 65 350° 7 - 30.27 30.27 10 CLR 24-hr Min Temp (1am): 45.0°F
24-hr Max Temp (1am): 64.0°F
2017-10-16 23:53 47 37 42 68 360° 10 - 30.26 30.26 10 CLR None
2017-10-16 22:53 48 35 44 60 350° 9 - 30.24 30.24 10 CLR None
2017-10-16 21:53 50 35 46 56 330° 9 - 30.21 30.21 10 CLR None
2017-10-16 20:53 50 38 47 63 310° 7 - 30.19 30.18 10 CLR None
2017-10-16 19:53 51 40 - 65 320° 5 - 30.16 30.16 10 CLR 6-hr Min Temp (8pm): 50.0°F
6-hr Max Temp (8pm): 61.0°F
2017-10-16 18:53 53 38 - 56 330° 5 - 30.13 30.13 10 CLR None
2017-10-16 17:53 57 39 - 50 10° 6 - 30.12 30.11 10 CLR None
2017-10-16 16:53 60 38 - 43 340° 10 - 30.11 30.10 10 FEW049 None
2017-10-16 15:53 60 37 - 42 330° 14 - 30.10 30.09 10 CLR None

Support USWX by starting your Amazon purchase here.